100LL.CA
Aviation Fuel Pricing for Canadians
Please upgrade your browser - Tested with IE9, FireFox, Chrome, Safari

Fuel Airports Other Help
Prices Economy Info List METAR/TAF Kneeboard Help

Reference Airport: HIGH LEVEL, AB
N 58 37 18  W 117 09 53
Provinces to show:

CYOJ HIGH LEVEL, AB
WEATHER
METARCYOJ 131700Z 30007KT 200V340 15SM FEW100 06/M06 A2966 RMK AC1 AC TR SLP062
TAFTAF CYOJ 131240Z 1313/1401 23004KT P6SM SKC BECMG 1314/1316 26008KT BECMG 1316/1318 27012KT FM131800 27012G22KT P6SM SKC FM132100 27015KT P6SM SCT060 TEMPO 1322/1401 BKN060 RMK FCST BASED ON AUTO OBS. NXT FCST BY 131900Z
OTHER SITES

FlightAware

FltPlan

Google Maps

SkyVector
FUEL
FBO 100LL
member
100LL
public
JETA MOGAS
Flight Fuels (2022-01-16)2.1531.733
Canada Flight Supplement - CYOJ
(opens in new tab/window)


Please Send Updates!

Desktop Version ]  [ Mobile Version ]  [ Disclaimer ]